Time;durP1;ratioP1;P1;durP2;ratioP2;P2;SDS_P1;SDS_P2;PMS_P1;PMS_P2;Temp;Humidity;BMP_temperature;BMP_pressure;BME280_temperature;BME280_humidity;BME280_pressure;Samples;Min_cycle;Max_cycle;Signal;HPM_P1;HPM_P2
2021/06/24 00:02:03;;;;;;;23.52;10.35;;;;;;;16.88;67.45;101753.72;5091692;28;20071;-63
2021/06/24 00:04:30;;;;;;;17.27;9.98;;;;;;;16.90;67.60;101742.81;5094080;28;20048;-64
2021/06/24 00:06:57;;;;;;;21.85;9.90;;;;;;;16.81;67.77;101739.28;5094414;28;20040;-63
2021/06/24 00:09:23;;;;;;;22.40;9.77;;;;;;;16.79;67.72;101738.63;5094611;28;20174;-64
2021/06/24 00:11:50;;;;;;;19.27;9.95;;;;;;;16.77;68.67;101737.09;5094298;28;20060;-63
2021/06/24 00:14:17;;;;;;;21.75;10.35;;;;;;;16.81;68.27;101736.59;5100150;28;20047;-63
2021/06/24 00:16:45;;;;;;;18.13;10.18;;;;;;;16.58;68.89;101738.31;5113176;28;20057;-63
2021/06/24 00:19:12;;;;;;;19.15;9.68;;;;;;;16.86;68.06;101736.97;5113305;28;20412;-63
2021/06/24 00:21:39;;;;;;;18.92;9.02;;;;;;;16.81;68.37;101735.78;5096682;28;20068;-63
2021/06/24 00:24:06;;;;;;;22.40;10.52;;;;;;;16.75;68.19;101736.44;5113200;28;20039;-63
2021/06/24 00:26:33;;;;;;;21.10;10.30;;;;;;;16.72;68.26;101742.13;5109321;28;20047;-63
2021/06/24 00:28:59;;;;;;;18.90;9.55;;;;;;;16.69;68.62;101744.16;5092801;28;20438;-63
2021/06/24 00:31:26;;;;;;;25.45;9.88;;;;;;;16.70;69.03;101748.50;5090801;28;20036;-63
2021/06/24 00:33:53;;;;;;;19.30;10.23;;;;;;;16.76;68.02;101751.53;5093753;28;20056;-63
2021/06/24 00:36:20;;;;;;;20.67;10.15;;;;;;;16.66;68.80;101749.88;5094102;28;20045;-63
2021/06/24 00:38:47;;;;;;;24.00;10.30;;;;;;;16.66;68.41;101740.97;5093725;28;20044;-63
2021/06/24 00:41:16;;;;;;;19.60;9.70;;;;;;;16.81;67.47;101744.66;5094375;28;20046;-63
2021/06/24 00:43:43;;;;;;;22.42;10.13;;;;;;;16.69;68.13;101743.31;5093567;28;20044;-63
2021/06/24 00:46:09;;;;;;;20.67;10.27;;;;;;;16.63;68.93;101744.84;5093470;28;20050;-63
2021/06/24 00:48:36;;;;;;;20.48;9.88;;;;;;;16.64;68.75;101748.34;5093906;28;20500;-63
2021/06/24 00:51:04;;;;;;;17.88;9.48;;;;;;;16.63;68.59;101741.34;5093368;28;20040;-63
2021/06/24 00:53:31;;;;;;;24.63;10.40;;;;;;;16.60;68.66;101737.13;5093632;28;20059;-63
2021/06/24 00:55:58;;;;;;;23.08;9.75;;;;;;;16.59;68.71;101745.34;5075710;28;20043;-63
2021/06/24 00:58:34;;;;;;;21.70;10.45;;;;;;;16.62;68.86;101743.16;5091799;28;20492;-63
2021/06/24 01:01:01;;;;;;;17.63;10.45;;;;;;;16.62;69.11;101737.78;5092074;28;20094;-63
2021/06/24 01:03:28;;;;;;;20.95;9.63;;;;;;;16.64;69.09;101743.00;5093372;28;20118;-64
2021/06/24 01:05:55;;;;;;;20.70;9.70;;;;;;;16.69;68.67;101729.94;5093391;28;20060;-63
2021/06/24 01:08:28;;;;;;;20.15;9.90;;;;;;;16.67;68.72;101735.44;5093314;28;20123;-63
2021/06/24 01:10:59;;;;;;;19.30;10.25;;;;;;;16.62;68.63;101740.47;5093111;28;20044;-63
2021/06/24 01:13:27;;;;;;;20.60;10.57;;;;;;;16.60;68.93;101730.94;5091682;28;20052;-63
2021/06/24 01:15:54;;;;;;;20.70;9.95;;;;;;;16.58;69.16;101728.44;5092134;28;20044;-63
2021/06/24 01:18:21;;;;;;;21.50;10.13;;;;;;;16.56;68.63;101725.09;5091679;28;20042;-63
2021/06/24 01:20:48;;;;;;;19.92;10.52;;;;;;;16.53;68.75;101727.28;5093341;28;20068;-63
2021/06/24 01:23:17;;;;;;;20.85;10.90;;;;;;;16.47;69.65;101728.78;5093265;28;20136;-63
2021/06/24 01:25:44;;;;;;;20.05;9.60;;;;;;;16.63;68.54;101730.63;5092455;28;20047;-63
2021/06/24 01:28:13;;;;;;;20.60;10.05;;;;;;;16.51;69.37;101720.22;5092711;28;20044;-63
2021/06/24 01:30:41;;;;;;;22.42;10.63;;;;;;;16.46;69.57;101722.59;5080809;28;20041;-63
2021/06/24 01:33:11;;;;;;;22.02;10.43;;;;;;;16.54;69.23;101727.13;5072880;28;20045;-63
2021/06/24 01:35:39;;;;;;;21.65;10.02;;;;;;;16.54;68.90;101721.75;5072607;28;20094;-63
2021/06/24 01:38:09;;;;;;;21.65;11.02;;;;;;;16.48;70.14;101720.59;5072121;28;20086;-63
2021/06/24 01:40:45;;;;;;;27.67;11.02;;;;;;;16.44;69.44;101724.59;5071915;28;20038;-63
2021/06/24 01:43:12;;;;;;;25.17;10.75;;;;;;;16.59;68.74;101716.72;5072364;28;20071;-63
2021/06/24 01:45:57;;;;;;;24.00;10.75;;;;;;;16.46;69.51;101713.72;5072591;28;20409;-63
2021/06/24 01:48:25;;;;;;;20.65;10.35;;;;;;;16.49;69.06;101716.06;5072549;28;20127;-63
2021/06/24 01:50:54;;;;;;;24.85;10.60;;;;;;;16.39;69.34;101715.41;5071957;28;20052;-63
2021/06/24 01:53:21;;;;;;;20.70;10.73;;;;;;;16.39;69.89;101712.72;5072689;28;20497;-63
2021/06/24 01:55:49;;;;;;;21.30;10.77;;;;;;;16.48;68.92;101709.03;5104786;28;20047;-63
2021/06/24 01:58:22;;;;;;;24.67;11.07;;;;;;;16.60;68.28;101702.31;5074238;28;20440;-63
2021/06/24 02:01:04;;;;;;;25.10;11.95;;;;;;;16.58;68.54;101701.66;5076925;28;20040;-63
2021/06/24 02:03:37;;;;;;;22.35;12.07;;;;;;;16.45;69.51;101701.34;5092738;28;20097;-63
2021/06/24 02:06:07;;;;;;;19.98;11.43;;;;;;;16.44;69.65;101697.81;5092986;28;20052;-63
2021/06/24 02:08:36;;;;;;;22.88;11.68;;;;;;;16.37;70.02;101702.19;5093183;28;20040;-63
2021/06/24 02:11:22;;;;;;;24.23;11.75;;;;;;;16.45;69.93;101704.03;5092312;28;20101;-63
2021/06/24 02:13:55;;;;;;;26.60;11.52;;;;;;;16.53;69.21;101704.00;5091123;28;20232;-63
2021/06/24 02:16:23;;;;;;;25.98;12.65;;;;;;;16.55;69.00;101709.19;5107616;28;20048;-64
2021/06/24 02:18:54;;;;;;;22.85;12.05;;;;;;;16.45;69.42;101701.34;5112464;28;20039;-64
2021/06/24 02:21:41;;;;;;;23.73;12.60;;;;;;;16.50;69.15;101704.34;5112473;28;20085;-63
2021/06/24 02:24:09;;;;;;;24.88;12.10;;;;;;;16.33;69.92;101698.16;5112457;28;20044;-64
2021/06/24 02:26:46;;;;;;;24.13;12.45;;;;;;;16.39;69.49;101689.47;5111431;28;20052;-64
2021/06/24 02:29:21;;;;;;;28.48;12.35;;;;;;;16.40;69.41;101684.94;5099824;28;20044;-64
2021/06/24 02:31:50;;;;;;;28.23;12.35;;;;;;;16.59;68.63;101687.25;5092310;28;20040;-63
2021/06/24 02:34:33;;;;;;;25.00;12.57;;;;;;;16.56;68.65;101684.91;5092210;28;20135;-63
2021/06/24 02:37:05;;;;;;;26.05;12.77;;;;;;;16.51;69.04;101673.88;5092581;28;20135;-63
2021/06/24 02:39:52;;;;;;;29.13;13.23;;;;;;;16.36;70.05;101683.63;5094836;28;20047;-63
2021/06/24 02:42:23;;;;;;;26.58;13.38;;;;;;;16.19;70.74;101672.94;5093623;28;20068;-63
2021/06/24 02:44:50;;;;;;;30.45;13.52;;;;;;;16.12;70.68;101672.75;5094353;28;20131;-63
2021/06/24 02:47:17;;;;;;;28.27;13.32;;;;;;;16.11;71.42;101679.09;5095854;28;20127;-63
2021/06/24 02:49:45;;;;;;;31.83;14.40;;;;;;;16.14;71.19;101672.59;5094428;28;20064;-64
2021/06/24 02:52:13;;;;;;;26.55;13.35;;;;;;;16.12;71.01;101671.94;5095987;28;20072;-63
2021/06/24 02:54:42;;;;;;;26.83;13.55;;;;;;;16.01;71.68;101675.78;5095925;28;20136;-63
2021/06/24 02:57:09;;;;;;;28.80;13.38;;;;;;;16.09;71.38;101667.72;5095678;28;20036;-63
2021/06/24 02:59:56;;;;;;;30.48;14.05;;;;;;;16.21;70.37;101670.06;5094852;28;20047;-63
2021/06/24 03:02:23;;;;;;;23.45;13.50;;;;;;;16.12;71.29;101671.94;5095881;28;20032;-63
2021/06/24 03:04:50;;;;;;;22.58;13.70;;;;;;;16.07;71.21;101667.06;5095762;28;20043;-63
2021/06/24 03:07:17;;;;;;;26.52;13.43;;;;;;;16.12;70.96;101670.06;5077484;28;20458;-63
2021/06/24 03:10:05;;;;;;;27.48;13.35;;;;;;;16.20;70.38;101677.25;5095060;28;20127;-63
2021/06/24 03:12:39;;;;;;;25.75;13.60;;;;;;;16.26;70.88;101676.59;5095679;28;20048;-63
2021/06/24 03:15:08;;;;;;;24.58;13.55;;;;;;;16.10;71.49;101685.47;5095542;28;20504;-63
2021/06/24 03:17:35;;;;;;;32.50;14.32;;;;;;;16.04;71.95;101678.09;5095356;28;20044;-63
2021/06/24 03:20:06;;;;;;;26.77;13.00;;;;;;;16.23;71.00;101681.47;5095831;28;20177;-63
2021/06/24 03:22:34;;;;;;;30.95;13.95;;;;;;;16.27;70.60;101675.59;5094971;28;20511;-63
2021/06/24 03:25:04;;;;;;;25.45;13.63;;;;;;;16.27;70.50;101678.25;5094070;28;20048;-63
2021/06/24 03:27:32;;;;;;;27.17;13.93;;;;;;;16.29;70.98;101678.09;5095182;28;20040;-63
2021/06/24 03:30:19;;;;;;;21.67;13.50;;;;;;;16.34;70.50;101673.06;5095124;28;20048;-63
2021/06/24 03:32:46;;;;;;;23.30;14.07;;;;;;;16.08;71.36;101676.78;5094944;28;20109;-63
2021/06/24 03:35:14;;;;;;;29.15;14.27;;;;;;;16.27;70.42;101680.09;5093496;28;20048;-63
2021/06/24 03:37:41;;;;;;;25.67;14.35;;;;;;;16.26;71.55;101671.25;5094644;28;20040;-63
2021/06/24 03:40:10;;;;;;;25.25;13.07;;;;;;;16.22;71.11;101674.41;5095148;28;20040;-63
2021/06/24 03:42:38;;;;;;;26.17;13.82;;;;;;;16.36;70.13;101680.94;5094896;28;20074;-63
2021/06/24 03:45:06;;;;;;;24.25;13.75;;;;;;;16.36;70.48;101676.41;5094903;28;20047;-63
2021/06/24 03:47:33;;;;;;;32.30;15.15;;;;;;;16.33;70.30;101674.06;5094306;28;20064;-63
2021/06/24 03:50:01;;;;;;;31.90;13.73;;;;;;;16.38;70.07;101674.41;5094623;28;20066;-63
2021/06/24 03:52:29;;;;;;;31.95;14.93;;;;;;;16.27;70.72;101672.06;5094792;28;20044;-63
2021/06/24 03:54:57;;;;;;;27.60;14.98;;;;;;;16.17;71.05;101668.72;5093431;28;20050;-63
2021/06/24 03:57:24;;;;;;;31.73;14.32;;;;;;;16.24;71.02;101667.88;5093562;28;20051;-63
2021/06/24 04:00:00;;;;;;;29.70;14.52;;;;;;;16.44;70.18;101667.53;5094238;28;20048;-63
2021/06/24 04:02:46;;;;;;;27.23;14.52;;;;;;;16.37;70.25;101664.72;5093530;28;20047;-63
2021/06/24 04:05:30;;;;;;;27.90;14.93;;;;;;;16.44;69.94;101659.50;5094372;28;20050;-63
2021/06/24 04:08:01;;;;;;;32.38;14.65;;;;;;;16.19;71.34;101656.88;5093186;28;20127;-63
2021/06/24 04:10:30;;;;;;;28.55;14.65;;;;;;;16.28;71.10;101650.50;5094088;28;20130;-63
2021/06/24 04:12:57;;;;;;;32.47;15.27;;;;;;;16.30;70.86;101653.84;5094397;28;20040;-63
2021/06/24 04:15:33;;;;;;;27.58;14.68;;;;;;;16.18;71.17;101647.16;5097390;28;20050;-63
2021/06/24 04:18:03;;;;;;;29.42;15.38;;;;;;;16.17;71.11;101647.31;5096599;28;20043;-63
2021/06/24 04:20:32;;;;;;;27.10;15.00;;;;;;;16.19;71.21;101656.00;5114730;28;20504;-63
2021/06/24 04:23:00;;;;;;;26.30;14.55;;;;;;;16.17;70.92;101653.53;5114409;28;20083;-63
2021/06/24 04:25:37;;;;;;;27.90;15.93;;;;;;;16.05;72.07;101657.53;5108745;28;20417;-63
2021/06/24 04:28:04;;;;;;;31.95;15.07;;;;;;;16.11;71.75;101654.19;5094174;28;20036;-63
2021/06/24 04:30:33;;;;;;;31.48;15.88;;;;;;;16.05;72.31;101658.38;5092652;28;20048;-63
2021/06/24 04:33:00;;;;;;;38.70;17.33;;;;;;;16.09;72.50;101657.03;5094009;28;20044;-62
2021/06/24 04:35:36;;;;;;;29.23;16.67;;;;;;;16.11;72.49;101651.50;5094061;28;20105;-63
2021/06/24 04:38:13;;;;;;;33.17;15.45;;;;;;;16.17;71.89;101653.53;5094144;28;20051;-63
2021/06/24 04:40:43;;;;;;;36.15;16.98;;;;;;;16.21;71.48;101648.66;5093915;28;20555;-63
2021/06/24 04:43:11;;;;;;;34.88;16.52;;;;;;;16.27;71.30;101647.97;5092855;28;20054;-63
2021/06/24 04:45:42;;;;;;;28.73;16.05;;;;;;;16.24;70.97;101651.00;5093532;28;20048;-63
2021/06/24 04:48:17;;;;;;;34.17;16.55;;;;;;;16.17;71.75;101648.19;5092845;28;20068;-63
2021/06/24 04:50:46;;;;;;;35.38;16.58;;;;;;;16.16;71.26;101648.34;5092247;28;20059;-63
2021/06/24 04:53:14;;;;;;;32.72;16.13;;;;;;;16.19;71.54;101646.16;5093765;28;20082;-63
2021/06/24 04:55:54;;;;;;;30.23;17.05;;;;;;;16.16;71.94;101646.50;5093512;28;20040;-63
2021/06/24 04:58:24;;;;;;;33.42;17.00;;;;;;;16.23;71.58;101644.81;5093280;28;20071;-63
2021/06/24 05:01:11;;;;;;;28.85;17.33;;;;;;;16.18;72.22;101638.28;5091292;28;20078;-63
2021/06/24 05:03:58;;;;;;;38.17;17.25;;;;;;;16.14;72.42;101639.66;5078477;28;20523;-63
2021/06/24 05:06:25;;;;;;;36.22;18.17;;;;;;;16.16;72.43;101642.97;5092194;28;20101;-63
2021/06/24 05:08:52;;;;;;;31.88;17.48;;;;;;;16.19;72.34;101639.94;5093113;28;20048;-63
2021/06/24 05:11:20;;;;;;;32.03;17.33;;;;;;;16.16;72.73;101640.31;5093406;28;20047;-63
2021/06/24 05:13:47;;;;;;;35.50;17.88;;;;;;;16.24;72.18;101645.63;5093335;28;20036;-63
2021/06/24 05:16:13;;;;;;;37.08;17.45;;;;;;;16.18;72.60;101641.78;5092943;28;20114;-63
2021/06/24 05:18:42;;;;;;;30.35;17.98;;;;;;;16.19;72.28;101639.94;5093069;28;20189;-64
2021/06/24 05:21:09;;;;;;;29.75;17.73;;;;;;;16.25;72.36;101641.97;5092608;28;20048;-63
2021/06/24 05:23:38;;;;;;;32.22;18.67;;;;;;;16.20;72.68;101639.78;5093276;28;20046;-63
2021/06/24 05:26:05;;;;;;;32.75;18.45;;;;;;;16.24;72.23;101648.31;5091930;28;20048;-63
2021/06/24 05:28:32;;;;;;;35.53;18.30;;;;;;;16.23;72.50;101646.66;5093092;28;20536;-63
2021/06/24 05:30:58;;;;;;;35.47;19.45;;;;;;;16.21;72.42;101651.31;5090282;28;20101;-63
2021/06/24 05:33:25;;;;;;;34.17;18.75;;;;;;;16.33;72.08;101659.84;5092575;28;20147;-63
2021/06/24 05:35:52;;;;;;;39.50;18.10;;;;;;;16.34;71.07;101658.88;5092538;28;20069;-64
2021/06/24 05:38:19;;;;;;;47.63;18.85;;;;;;;16.44;70.86;101660.31;5091439;28;20119;-63
2021/06/24 05:40:49;;;;;;;33.38;17.42;;;;;;;16.44;70.63;101662.16;5092902;28;20040;-63
2021/06/24 05:43:16;;;;;;;38.97;16.70;;;;;;;16.49;71.12;101659.81;5091570;28;20050;-63
2021/06/24 05:45:44;;;;;;;32.78;17.40;;;;;;;16.64;69.70;101655.41;5092743;28;20079;-62
2021/06/24 05:48:11;;;;;;;33.33;18.08;;;;;;;16.52;70.89;101664.84;5074267;28;20101;-63
2021/06/24 05:50:39;;;;;;;36.38;18.60;;;;;;;16.54;71.02;101654.78;5092479;28;20059;-63
2021/06/24 05:53:06;;;;;;;38.50;19.13;;;;;;;16.54;71.27;101656.66;5091250;28;20067;-63
2021/06/24 05:55:49;;;;;;;40.97;18.48;;;;;;;16.60;70.75;101655.94;5092393;28;20074;-63
2021/06/24 05:58:19;;;;;;;43.67;18.60;;;;;;;16.61;70.73;101647.75;5091031;28;20062;-63
2021/06/24 06:00:47;;;;;;;31.88;17.75;;;;;;;16.71;70.09;101655.56;5090496;28;20093;-63
2021/06/24 06:03:15;;;;;;;37.10;17.35;;;;;;;16.66;69.78;101658.78;5092593;28;20040;-63
2021/06/24 06:05:42;;;;;;;30.38;17.13;;;;;;;16.62;70.84;101653.94;5092516;28;20496;-63
2021/06/24 06:08:09;;;;;;;39.63;19.35;;;;;;;16.54;71.13;101652.13;5091469;28;20067;-63
2021/06/24 06:10:38;;;;;;;33.63;17.35;;;;;;;16.61;69.99;101647.75;5092629;28;20480;-64
2021/06/24 06:13:07;;;;;;;36.35;17.73;;;;;;;16.60;70.47;101647.91;5095450;28;20040;-63
2021/06/24 06:15:35;;;;;;;46.97;17.23;;;;;;;16.70;70.00;101648.56;5094988;28;20051;-63
2021/06/24 06:18:10;;;;;;;32.92;18.80;;;;;;;16.57;70.75;101648.25;5113824;28;20100;-63
2021/06/24 06:20:38;;;;;;;46.15;18.35;;;;;;;16.78;69.70;101645.00;5115523;28;20051;-64
2021/06/24 06:23:06;;;;;;;32.42;17.77;;;;;;;16.72;69.69;101649.22;5108671;28;20095;-64
2021/06/24 06:25:33;;;;;;;38.83;19.15;;;;;;;16.57;69.96;101646.44;5094933;28;20044;-64
2021/06/24 06:27:59;;;;;;;33.97;18.42;;;;;;;16.64;70.33;101639.34;5077767;28;20044;-64
2021/06/24 06:30:27;;;;;;;34.15;18.08;;;;;;;16.73;70.30;101640.16;5094948;28;20591;-64
2021/06/24 06:32:54;;;;;;;36.97;19.58;;;;;;;16.71;69.95;101650.22;5094860;28;20059;-64
2021/06/24 06:35:21;;;;;;;36.03;18.38;;;;;;;16.67;70.47;101636.34;5096259;28;20050;-64
2021/06/24 06:37:48;;;;;;;38.42;18.30;;;;;;;16.79;69.60;101644.00;5095105;28;20067;-63
2021/06/24 06:40:15;;;;;;;35.58;17.98;;;;;;;16.77;70.14;101643.34;5095792;28;20070;-64
2021/06/24 06:42:42;;;;;;;39.83;18.30;;;;;;;16.81;69.53;101634.78;5096186;28;20063;-64
2021/06/24 06:45:10;;;;;;;37.30;19.40;;;;;;;16.93;69.61;101640.63;5095942;28;20044;-64
2021/06/24 06:47:37;;;;;;;36.60;18.80;;;;;;;16.92;69.09;101647.00;5095820;28;20064;-64
2021/06/24 06:50:04;;;;;;;37.50;19.40;;;;;;;16.93;69.55;101648.66;5095833;28;20048;-64
2021/06/24 06:52:30;;;;;;;32.95;18.50;;;;;;;16.94;69.35;101647.66;5095770;28;20148;-64
2021/06/24 06:54:57;;;;;;;37.58;19.27;;;;;;;16.93;70.27;101650.50;5095354;28;20055;-64
2021/06/24 06:57:24;;;;;;;41.38;18.83;;;;;;;16.97;69.50;101649.16;5095850;28;20091;-64
2021/06/24 06:59:51;;;;;;;35.78;18.15;;;;;;;17.07;69.59;101650.59;5094298;28;20117;-64
2021/06/24 07:02:18;;;;;;;34.58;18.15;;;;;;;17.08;69.42;101641.56;5094084;28;20549;-63
2021/06/24 07:04:45;;;;;;;37.67;19.15;;;;;;;16.99;69.29;101645.31;5095425;28;20462;-64
2021/06/24 07:07:18;;;;;;;32.60;18.42;;;;;;;17.06;69.57;101650.78;5094156;28;20052;-63
2021/06/24 07:09:45;;;;;;;32.47;19.88;;;;;;;17.07;70.36;101652.47;5095369;28;20578;-64
2021/06/24 07:12:12;;;;;;;39.25;19.77;;;;;;;17.16;71.09;101646.03;5095476;28;20119;-63
2021/06/24 07:14:39;;;;;;;35.40;19.08;;;;;;;17.16;68.82;101631.81;5094343;28;20044;-63
2021/06/24 07:17:06;;;;;;;34.72;20.15;;;;;;;17.25;70.11;101636.94;5093810;28;20442;-64
2021/06/24 07:19:33;;;;;;;33.95;19.35;;;;;;;17.38;68.46;101641.72;5094258;28;20581;-64
2021/06/24 07:21:59;;;;;;;45.05;20.92;;;;;;;17.46;68.78;101635.47;5093871;28;20044;-63
2021/06/24 07:24:26;;;;;;;37.58;20.75;;;;;;;17.61;68.13;101640.94;5094911;28;20044;-64
2021/06/24 07:26:53;;;;;;;36.38;19.52;;;;;;;17.62;66.85;101638.03;5093806;28;20073;-63
2021/06/24 07:29:20;;;;;;;34.58;18.58;;;;;;;17.61;67.31;101631.03;5094232;28;20040;-63
2021/06/24 07:31:47;;;;;;;33.05;20.17;;;;;;;17.65;68.37;101629.66;5073426;28;20131;-61
2021/06/24 07:34:14;;;;;;;34.33;20.35;;;;;;;17.56;67.78;101628.03;5092703;28;20051;-62
2021/06/24 07:36:41;;;;;;;38.08;20.42;;;;;;;17.74;67.46;101637.66;5094859;28;20044;-62
2021/06/24 07:39:08;;;;;;;35.70;19.45;;;;;;;17.77;66.45;101635.44;5093335;28;20048;-62
2021/06/24 07:41:35;;;;;;;39.33;19.10;;;;;;;17.87;67.86;101635.22;5093682;28;20059;-62
2021/06/24 07:44:02;;;;;;;33.83;19.02;;;;;;;17.86;66.50;101636.22;5077363;28;20099;-62
2021/06/24 07:46:29;;;;;;;38.33;19.45;;;;;;;17.91;67.33;101641.88;5073595;28;20052;-62
2021/06/24 07:48:56;;;;;;;43.08;20.08;;;;;;;17.98;67.08;101642.84;5073670;28;20136;-62
2021/06/24 07:51:23;;;;;;;35.10;20.15;;;;;;;18.13;66.02;101642.84;5070569;28;20114;-61
2021/06/24 07:53:50;;;;;;;38.00;19.00;;;;;;;18.07;65.85;101645.47;5088615;28;20070;-61
2021/06/24 07:56:18;;;;;;;36.25;19.50;;;;;;;18.14;66.23;101638.34;5084517;28;20097;-65
2021/06/24 07:58:45;;;;;;;35.80;19.40;;;;;;;18.03;65.60;101645.81;5072901;28;20070;-62
2021/06/24 08:01:12;;;;;;;40.08;19.30;;;;;;;18.19;64.94;101638.59;5072966;28;20123;-62
2021/06/24 08:03:39;;;;;;;42.83;20.60;;;;;;;18.06;65.49;101644.59;5079294;28;20118;-62
2021/06/24 08:06:06;;;;;;;41.30;19.90;;;;;;;18.09;65.42;101633.50;5080500;28;20044;-62
2021/06/24 08:08:33;;;;;;;36.67;20.25;;;;;;;18.29;65.60;101636.50;5091096;28;20048;-62
2021/06/24 08:11:00;;;;;;;38.35;21.55;;;;;;;18.45;66.64;101640.06;5078067;28;20032;-61
2021/06/24 08:13:28;;;;;;;37.47;20.80;;;;;;;18.43;64.46;101629.50;5082159;28;20040;-62
2021/06/24 08:15:57;;;;;;;39.70;20.85;;;;;;;18.58;64.28;101629.50;5089378;28;20090;-62
2021/06/24 08:18:24;;;;;;;45.70;26.50;;;;;;;18.60;64.67;101639.00;5091210;28;20120;-61
2021/06/24 08:20:52;;;;;;;42.60;22.67;;;;;;;18.66;63.38;101633.94;5083280;28;20127;-62
2021/06/24 08:23:21;;;;;;;43.20;21.92;;;;;;;18.72;63.87;101628.66;5076426;28;20032;-62
2021/06/24 08:25:48;;;;;;;40.92;22.35;;;;;;;18.79;63.65;101626.88;5078288;28;20051;-62
2021/06/24 08:28:16;;;;;;;39.08;21.15;;;;;;;19.04;63.13;101628.44;5107034;28;20056;-62
2021/06/24 08:30:44;;;;;;;36.28;21.42;;;;;;;19.13;62.96;101622.75;5083294;28;20556;-63
2021/06/24 08:33:12;;;;;;;37.33;21.67;;;;;;;18.95;62.92;101633.91;5093136;28;20038;-65
2021/06/24 08:35:41;;;;;;;38.72;21.02;;;;;;;18.95;63.70;101625.84;5081508;28;20122;-63
2021/06/24 08:38:11;;;;;;;39.38;21.17;;;;;;;19.18;62.60;101620.34;5080574;28;20105;-62
2021/06/24 08:40:40;;;;;;;38.28;21.05;;;;;;;19.07;62.91;101620.84;5091578;28;20047;-62
2021/06/24 08:43:09;;;;;;;41.25;21.67;;;;;;;19.29;63.50;101629.78;5082504;28;20044;-63
2021/06/24 08:45:39;;;;;;;42.70;21.30;;;;;;;19.27;62.03;101622.94;5079631;28;20052;-62
2021/06/24 08:48:13;;;;;;;41.15;21.20;;;;;;;19.34;62.63;101629.22;5086755;28;20040;-62
2021/06/24 08:50:45;;;;;;;44.65;21.52;;;;;;;19.22;62.40;101625.34;5092557;28;20050;-62
2021/06/24 08:53:16;;;;;;;37.08;20.50;;;;;;;19.19;63.13;101629.25;5088204;28;20059;-62
2021/06/24 08:55:46;;;;;;;35.28;21.55;;;;;;;19.34;64.01;101626.53;5099007;28;20519;-61
2021/06/24 08:58:13;;;;;;;35.45;20.73;;;;;;;19.34;62.55;101632.72;5085479;28;20127;-61
2021/06/24 09:00:42;;;;;;;40.60;22.33;;;;;;;19.46;62.73;101634.91;5083040;28;20459;-62
2021/06/24 09:07:53;;;;;;;47.90;22.15;;;;;;;19.98;62.36;101630.25;5074923;28;20032;-62
2021/06/24 09:10:23;;;;;;;45.30;21.92;;;;;;;20.00;61.14;101625.50;5090707;28;20028;-62
2021/06/24 09:12:57;;;;;;;40.83;21.98;;;;;;;20.06;60.17;101624.72;5098365;28;20126;-62
2021/06/24 09:15:25;;;;;;;43.15;23.98;;;;;;;19.94;59.90;101624.44;5094389;28;20055;-62
2021/06/24 09:17:52;;;;;;;38.88;22.50;;;;;;;20.17;60.18;101636.81;5099277;28;20162;-64
2021/06/24 09:23:20;;;;;;;37.50;22.20;;;;;;;20.35;59.84;101625.53;5111262;27;20766;-62
2021/06/24 09:26:04;;;;;;;44.10;24.30;;;;;;;20.51;58.44;101631.44;5072938;28;20089;-63
2021/06/24 09:28:42;;;;;;;45.65;24.10;;;;;;;20.67;59.07;101624.13;5095791;28;20492;-62
2021/06/24 09:31:30;;;;;;;39.00;24.08;;;;;;;20.36;58.85;101628.06;5107939;28;20036;-62
2021/06/24 09:34:05;;;;;;;48.42;24.13;;;;;;;20.50;59.81;101629.81;5100578;28;20036;-62
2021/06/24 09:36:36;;;;;;;258.80;173.35;;;;;;;20.67;60.34;101630.31;5096244;28;20055;-62
2021/06/24 09:39:07;;;;;;;44.60;26.90;;;;;;;20.42;59.23;101621.03;5093350;28;20072;-62
2021/06/24 09:41:35;;;;;;;43.38;22.95;;;;;;;20.37;59.72;101626.19;5074934;28;20040;-62
2021/06/24 09:44:18;;;;;;;38.85;23.70;;;;;;;20.44;60.13;101617.09;5098072;28;20047;-62
2021/06/24 09:46:45;;;;;;;42.58;24.92;;;;;;;20.06;59.64;101625.53;5084932;28;20093;-62
2021/06/24 09:49:33;;;;;;;51.63;25.50;;;;;;;19.85;61.01;101623.72;5091130;28;20054;-62
2021/06/24 09:52:03;;;;;;;46.90;24.00;;;;;;;19.75;61.70;101618.69;5099987;28;20044;-62
2021/06/24 09:54:32;;;;;;;47.05;25.35;;;;;;;19.68;61.88;101614.22;5109316;28;20161;-62
2021/06/24 09:57:02;;;;;;;45.75;25.85;;;;;;;19.59;62.43;101610.81;5093105;28;20110;-62
2021/06/24 09:59:39;;;;;;;40.03;25.02;;;;;;;19.61;61.71;101611.47;5093637;28;20070;-62
2021/06/24 10:02:09;;;;;;;38.80;24.70;;;;;;;19.71;60.54;101616.53;5095194;28;20422;-62
2021/06/24 10:04:40;;;;;;;43.13;26.63;;;;;;;19.86;59.94;101613.78;5108034;28;20040;-62
2021/06/24 10:07:10;;;;;;;41.80;25.52;;;;;;;19.72;61.16;101608.28;5094209;28;20040;-62
2021/06/24 10:09:38;;;;;;;44.55;25.77;;;;;;;19.69;61.82;101613.22;5100026;28;20429;-63
2021/06/24 10:12:08;;;;;;;42.70;26.20;;;;;;;19.72;61.54;101605.56;5108620;28;20397;-62
2021/06/24 10:14:36;;;;;;;39.47;23.90;;;;;;;19.86;60.63;101611.91;5081975;28;20067;-62
2021/06/24 10:17:04;;;;;;;42.30;22.85;;;;;;;19.92;60.39;101621.09;5092617;28;20511;-62
2021/06/24 10:19:35;;;;;;;43.90;23.00;;;;;;;19.94;59.65;101621.75;5114658;28;20088;-62
2021/06/24 10:24:54;;;;;;;35.00;20.98;;;;;;;20.03;59.21;101609.78;5089089;27;20385;-61
2021/06/24 10:27:29;;;;;;;35.85;21.63;;;;;;;20.17;60.17;101618.78;5071703;28;20485;-63
2021/06/24 10:30:09;;;;;;;34.15;21.92;;;;;;;20.31;58.83;101619.72;5073139;28;20382;-63
2021/06/24 10:32:37;;;;;;;35.35;22.27;;;;;;;20.23;58.88;101622.56;5077600;28;20033;-63
2021/06/24 10:35:07;;;;;;;43.40;23.15;;;;;;;20.22;58.39;101615.50;5081820;28;20043;-63
2021/06/24 10:37:35;;;;;;;37.85;22.83;;;;;;;20.22;60.08;101616.34;5082817;28;20498;-63
2021/06/24 10:40:23;;;;;;;40.30;22.60;;;;;;;20.23;58.97;101611.78;5049119;28;20053;-64
2021/06/24 10:42:53;;;;;;;39.65;24.33;;;;;;;20.09;59.24;101617.09;5072029;28;20039;-63
2021/06/24 10:45:21;;;;;;;38.80;23.00;;;;;;;20.30;59.12;101607.25;5075921;28;20087;-63
2021/06/24 10:47:49;;;;;;;39.03;22.30;;;;;;;20.38;59.16;101609.00;5077375;28;20404;-63
2021/06/24 10:50:34;;;;;;;37.92;21.92;;;;;;;20.35;60.08;101612.91;5100718;28;20382;-63
2021/06/24 10:55:46;;;;;;;36.65;21.65;;;;;;;20.86;57.49;101603.66;5110032;27;20383;-62
2021/06/24 11:00:59;;;;;;;51.95;31.15;;;;;;;21.74;54.95;101594.72;5088175;28;20130;-63
2021/06/24 11:03:37;;;;;;;47.17;26.00;;;;;;;22.20;53.14;101602.81;5070861;28;20071;-64
2021/06/24 11:06:13;;;;;;;40.92;22.63;;;;;;;22.39;52.84;101597.59;5070251;28;20044;-64
2021/06/24 11:08:42;;;;;;;33.47;20.42;;;;;;;22.38;52.87;101591.38;5047467;28;20056;-64
2021/06/24 11:11:12;;;;;;;33.80;19.67;;;;;;;22.57;52.73;101586.94;5066112;28;20063;-63
2021/06/24 11:19:04;;;;;;;35.10;19.70;;;;;;;22.22;52.17;101595.31;5142434;27;20366;-62
2021/06/24 11:24:16;;;;;;;29.38;17.00;;;;;;;21.72;52.83;101588.72;5100002;27;20343;-62
2021/06/24 11:26:46;;;;;;;25.75;13.80;;;;;;;21.73;52.26;101595.78;5109421;28;20092;-62
2021/06/24 11:29:26;;;;;;;25.52;12.23;;;;;;;21.56;51.97;101588.09;5074079;28;20135;-62
2021/06/24 11:32:04;;;;;;;27.38;11.85;;;;;;;21.42;52.93;101589.06;5107704;28;20044;-62
2021/06/24 11:37:16;;;;;;;24.92;13.10;;;;;;;20.86;53.67;101601.78;5125918;27;20391;-62
2021/06/24 11:39:48;;;;;;;25.50;11.73;;;;;;;20.87;52.64;101589.16;5129051;28;20487;-62
2021/06/24 11:42:21;;;;;;;29.00;11.63;;;;;;;20.77;53.18;101591.38;5131445;28;20503;-61
2021/06/24 11:44:50;;;;;;;29.25;16.83;;;;;;;20.71;55.04;101585.75;5132321;27;20047;-61
2021/06/24 11:47:26;;;;;;;29.50;15.90;;;;;;;20.62;54.47;101588.84;5130379;27;20428;-61
2021/06/24 12:09:48;;;;;;;28.02;16.02;;;;;;;20.62;55.98;101586.13;5086964;27;20394;-62